createdAt,value
2019-01-22T00:00:46.021Z,1008.78
2019-01-22T00:01:46.363Z,1008.76
2019-01-22T00:02:46.137Z,1008.75
2019-01-22T00:03:46.294Z,1008.73
2019-01-22T00:04:46.217Z,1008.71
2019-01-22T00:05:46.532Z,1008.69
2019-01-22T00:06:46.812Z,1008.69
2019-01-22T00:07:47.228Z,1008.68
2019-01-22T00:08:47.583Z,1008.67
2019-01-22T00:09:47.962Z,1008.66
2019-01-22T00:10:48.266Z,1008.65
2019-01-22T00:11:48.675Z,1008.63
2019-01-22T00:12:49.027Z,1008.63
2019-01-22T00:13:49.488Z,1008.60
2019-01-22T00:14:50.131Z,1008.60
2019-01-22T00:15:50.415Z,1008.60
2019-01-22T00:16:51.000Z,1008.58
2019-01-22T00:17:50.704Z,1008.58
2019-01-22T00:18:50.973Z,1008.56
2019-01-22T00:19:51.314Z,1008.56
2019-01-22T00:20:51.634Z,1008.56
2019-01-22T00:21:51.943Z,1008.54
2019-01-22T00:22:52.279Z,1008.54
2019-01-22T00:23:52.624Z,1008.53
2019-01-22T00:24:52.987Z,1008.50
2019-01-22T00:25:53.501Z,1008.47
2019-01-22T00:26:53.755Z,1008.46
2019-01-22T00:27:54.102Z,1008.44
2019-01-22T00:28:54.703Z,1008.42
2019-01-22T00:29:54.563Z,1008.40
2019-01-22T00:30:55.234Z,1008.38
2019-01-22T00:31:55.266Z,1008.37
2019-01-22T00:32:56.165Z,1008.35
2019-01-22T00:33:57.194Z,1008.33
2019-01-22T00:34:57.005Z,1008.33
2019-01-22T00:35:57.206Z,1008.30
2019-01-22T00:36:57.523Z,1008.30
2019-01-22T00:37:57.631Z,1008.27
2019-01-22T00:38:57.889Z,1008.27
2019-01-22T00:39:58.109Z,1008.25
2019-01-22T00:40:58.265Z,1008.25
2019-01-22T00:41:58.293Z,1008.23
2019-01-22T00:42:58.789Z,1008.22
2019-01-22T00:43:58.693Z,1008.20
2019-01-22T00:44:58.900Z,1008.18
2019-01-22T00:45:59.103Z,1008.16
2019-01-22T00:46:59.228Z,1008.15
2019-01-22T00:47:59.133Z,1008.14
2019-01-22T00:48:59.634Z,1008.15
2019-01-22T00:49:59.972Z,1008.14
2019-01-22T00:50:59.954Z,1008.12
2019-01-22T00:52:00.284Z,1008.12
2019-01-22T00:53:00.752Z,1008.11
2019-01-22T00:54:01.213Z,1008.09
2019-01-22T00:55:01.539Z,1008.07
2019-01-22T00:56:01.524Z,1008.08
2019-01-22T00:57:02.147Z,1008.08
2019-01-22T00:58:01.908Z,1008.07
2019-01-22T00:59:02.475Z,1008.08
2019-01-22T01:00:02.184Z,1008.06
2019-01-22T01:01:02.679Z,1008.06
2019-01-22T01:02:02.906Z,1008.04
2019-01-22T01:03:03.220Z,1008.03
2019-01-22T01:04:03.056Z,1008.01
2019-01-22T01:05:03.806Z,1008.00
2019-01-22T01:06:04.228Z,1007.99
2019-01-22T01:07:04.576Z,1007.99
2019-01-22T01:08:04.841Z,1007.98
2019-01-22T01:09:04.956Z,1007.97
2019-01-22T01:10:04.936Z,1007.95
2019-01-22T01:11:05.627Z,1007.94
2019-01-22T01:12:05.473Z,1007.91
2019-01-22T01:13:05.800Z,1007.88
2019-01-22T01:14:06.079Z,1007.84
2019-01-22T01:15:06.822Z,1007.81
2019-01-22T01:16:06.490Z,1007.80
2019-01-22T01:17:06.860Z,1007.81
2019-01-22T01:18:07.141Z,1007.81
2019-01-22T01:19:07.735Z,1007.80
2019-01-22T01:20:07.602Z,1007.79
2019-01-22T01:21:07.900Z,1007.79
2019-01-22T01:22:08.195Z,1007.79
2019-01-22T01:23:09.187Z,1007.80
2019-01-22T01:24:08.925Z,1007.79
2019-01-22T01:25:09.245Z,1007.79
2019-01-22T01:26:10.034Z,1007.80
2019-01-22T01:27:09.930Z,1007.81
2019-01-22T01:28:11.167Z,1007.79
2019-01-22T01:29:11.479Z,1007.77
2019-01-22T01:30:11.923Z,1007.77
2019-01-22T01:31:12.418Z,1007.76
2019-01-22T01:32:13.237Z,1007.75
2019-01-22T01:33:12.632Z,1007.74
2019-01-22T01:34:13.032Z,1007.73
2019-01-22T01:35:56.775Z,1007.73
2019-01-22T01:36:56.978Z,1007.70
2019-01-22T01:37:57.176Z,1007.71
2019-01-22T01:38:57.383Z,1007.69
2019-01-22T01:39:57.600Z,1007.68
2019-01-22T01:40:57.815Z,1007.68
2019-01-22T01:41:58.170Z,1007.67
2019-01-22T01:42:58.367Z,1007.67
2019-01-22T01:43:58.576Z,1007.69
2019-01-22T01:44:58.773Z,1007.67
2019-01-22T01:45:58.987Z,1007.67
2019-01-22T01:46:59.231Z,1007.68
2019-01-22T01:47:59.434Z,1007.69
2019-01-22T01:48:59.642Z,1007.67
2019-01-22T01:49:59.841Z,1007.64
2019-01-22T01:51:00.056Z,1007.63
2019-01-22T01:52:00.258Z,1007.62
2019-01-22T01:53:00.464Z,1007.63
2019-01-22T01:54:00.657Z,1007.62
2019-01-22T01:55:00.867Z,1007.60
2019-01-22T01:56:01.326Z,1007.62
2019-01-22T01:57:01.542Z,1007.60
2019-01-22T01:58:01.750Z,1007.58
2019-01-22T01:59:01.961Z,1007.57
2019-01-22T02:00:02.170Z,1007.57
2019-01-22T02:01:02.225Z,1007.55
2019-01-22T02:02:02.472Z,1007.54
2019-01-22T02:03:02.685Z,1007.53
2019-01-22T02:04:02.895Z,1007.52
2019-01-22T02:05:03.114Z,1007.50
2019-01-22T02:06:03.338Z,1007.49
2019-01-22T02:07:03.553Z,1007.47
2019-01-22T02:08:03.739Z,1007.47
2019-01-22T02:09:03.925Z,1007.46
2019-01-22T02:10:04.160Z,1007.45
2019-01-22T02:11:04.540Z,1007.41
2019-01-22T02:12:04.742Z,1007.40
2019-01-22T02:13:04.962Z,1007.39
2019-01-22T02:14:10.721Z,1007.39
2019-01-22T02:15:10.729Z,1007.38
2019-01-22T02:16:10.914Z,1007.38
2019-01-22T02:17:18.215Z,1007.37
2019-01-22T02:18:34.094Z,1007.36
2019-01-22T02:19:41.215Z,1007.32
2019-01-22T02:20:45.715Z,1007.31
2019-01-22T02:21:47.268Z,1007.31
2019-01-22T02:22:48.775Z,1007.31
2019-01-22T02:23:58.792Z,1007.28
2019-01-22T02:25:00.309Z,1007.25
2019-01-22T02:27:00.833Z,1007.25
2019-01-22T02:28:02.362Z,1007.24
2019-01-22T02:29:23.194Z,1007.23
2019-01-22T02:30:38.304Z,1007.21
2019-01-22T02:31:46.301Z,1007.18
2019-01-22T02:32:46.730Z,1007.16
2019-01-22T02:33:46.968Z,1007.13
2019-01-22T02:34:55.843Z,1007.10
2019-01-22T02:36:03.187Z,1007.07
2019-01-22T02:37:03.395Z,1007.05
2019-01-22T02:38:04.909Z,1007.04
2019-01-22T02:39:06.414Z,1007.02
2019-01-22T02:41:06.657Z,1006.99
2019-01-22T02:42:11.098Z,1006.97
2019-01-22T02:43:11.512Z,1006.94
2019-01-22T02:44:21.164Z,1006.91
2019-01-22T02:45:25.360Z,1006.87
2019-01-22T02:46:26.884Z,1006.84
2019-01-22T02:47:40.633Z,1006.81
2019-01-22T02:48:54.763Z,1006.79
2019-01-22T02:49:56.261Z,1006.75
2019-01-22T02:50:57.766Z,1006.73
2019-01-22T02:52:05.283Z,1006.70
2019-01-22T02:53:06.800Z,1006.67
2019-01-22T02:54:08.318Z,1006.66
2019-01-22T02:55:08.748Z,1006.64
2019-01-22T02:56:10.281Z,1006.62
2019-01-22T02:57:21.863Z,1006.60
2019-01-22T02:58:32.145Z,1006.57
2019-01-22T02:59:33.662Z,1006.54
2019-01-22T03:00:56.601Z,1006.54
2019-01-22T03:01:58.266Z,1006.53
2019-01-22T03:03:20.507Z,1006.52
2019-01-22T03:04:24.923Z,1006.52
2019-01-22T03:05:26.657Z,1006.48
2019-01-22T03:06:49.262Z,1006.49
2019-01-22T03:07:50.765Z,1006.47
2019-01-22T03:09:12.118Z,1006.45
2019-01-22T03:10:22.590Z,1006.43
2019-01-22T03:11:46.519Z,1006.40
2019-01-22T03:12:52.508Z,1006.37
2019-01-22T03:13:56.949Z,1006.35
2019-01-22T03:15:04.215Z,1006.34
2019-01-22T03:16:05.761Z,1006.31
2019-01-22T03:17:25.634Z,1006.30
2019-01-22T03:18:30.542Z,1006.30
2019-01-22T03:19:38.058Z,1006.29
2019-01-22T03:20:42.400Z,1006.27
2019-01-22T03:21:51.698Z,1006.27
2019-01-22T03:22:53.206Z,1006.26
2019-01-22T03:23:54.734Z,1006.24
2019-01-22T03:24:59.289Z,1006.24
2019-01-22T03:26:00.165Z,1006.21
2019-01-22T03:27:00.469Z,1006.21
2019-01-22T03:28:04.342Z,1006.19
2019-01-22T03:29:11.629Z,1006.17
2019-01-22T03:30:13.147Z,1006.17
2019-01-22T03:31:23.947Z,1006.13
2019-01-22T03:32:28.584Z,1006.12
2019-01-22T03:33:37.069Z,1006.09
2019-01-22T03:35:41.466Z,1006.07
2019-01-22T03:36:52.561Z,1006.04
2019-01-22T03:37:57.076Z,1006.04
2019-01-22T03:39:06.722Z,1006.01
2019-01-22T03:40:13.423Z,1005.97
2019-01-22T03:41:14.934Z,1005.95
2019-01-22T03:42:16.466Z,1005.92
2019-01-22T03:43:24.054Z,1005.93
2019-01-22T03:44:28.425Z,1005.92
2019-01-22T03:45:34.794Z,1005.91
2019-01-22T03:46:35.009Z,1005.90
2019-01-22T03:47:36.353Z,1005.89
2019-01-22T03:48:41.942Z,1005.89
2019-01-22T03:49:46.404Z,1005.87
2019-01-22T03:50:46.564Z,1005.87
2019-01-22T03:51:48.072Z,1005.87
2019-01-22T03:53:05.977Z,1005.85
2019-01-22T03:54:06.031Z,1005.84
2019-01-22T03:55:18.963Z,1005.84
2019-01-22T03:56:20.550Z,1005.82
2019-01-22T03:57:20.966Z,1005.82
2019-01-22T03:58:24.245Z,1005.81
2019-01-22T03:59:24.448Z,1005.81
2019-01-22T04:00:24.646Z,1005.79
2019-01-22T04:01:24.894Z,1005.77
2019-01-22T04:02:25.321Z,1005.77
2019-01-22T04:03:25.708Z,1005.76
2019-01-22T04:04:25.925Z,1005.75
2019-01-22T04:05:26.126Z,1005.74
2019-01-22T04:06:26.333Z,1005.74
2019-01-22T04:07:26.369Z,1005.73
2019-01-22T04:08:26.562Z,1005.70
2019-01-22T04:09:26.760Z,1005.69
2019-01-22T04:10:29.751Z,1005.68
2019-01-22T04:11:31.798Z,1005.69
2019-01-22T04:12:36.326Z,1005.68
2019-01-22T04:13:36.527Z,1005.66
2019-01-22T04:14:36.751Z,1005.62
2019-01-22T04:15:36.948Z,1005.60
2019-01-22T04:16:37.317Z,1005.57
2019-01-22T04:17:37.503Z,1005.55
2019-01-22T04:18:37.699Z,1005.51
2019-01-22T04:19:37.908Z,1005.49
2019-01-22T04:20:38.127Z,1005.49
2019-01-22T04:21:38.202Z,1005.49
2019-01-22T04:22:38.678Z,1005.46
2019-01-22T04:23:38.814Z,1005.43
2019-01-22T04:24:42.911Z,1005.41
2019-01-22T04:25:44.448Z,1005.40
2019-01-22T04:26:44.775Z,1005.38
2019-01-22T04:27:52.384Z,1005.36
2019-01-22T04:28:52.597Z,1005.34
2019-01-22T04:31:01.527Z,1005.33
2019-01-22T04:32:06.950Z,1005.32
2019-01-22T04:33:07.380Z,1005.32
2019-01-22T04:34:08.888Z,1005.31
2019-01-22T04:35:10.406Z,1005.28
2019-01-22T04:36:20.651Z,1005.28
2019-01-22T04:37:22.169Z,1005.26
2019-01-22T04:38:23.578Z,1005.25
2019-01-22T04:39:53.208Z,1005.23
2019-01-22T04:40:54.736Z,1005.23
2019-01-22T04:42:05.011Z,1005.22
2019-01-22T04:43:28.402Z,1005.20
2019-01-22T04:44:29.910Z,1005.18
2019-01-22T04:45:37.487Z,1005.16
2019-01-22T04:46:54.106Z,1005.15
2019-01-22T04:47:58.388Z,1005.16
2019-01-22T04:48:58.652Z,1005.15
2019-01-22T04:50:08.090Z,1005.13
2019-01-22T04:51:19.958Z,1005.13
2019-01-22T04:52:19.972Z,1005.12
2019-01-22T04:53:43.273Z,1005.10
2019-01-22T04:54:50.466Z,1005.11
2019-01-22T04:55:52.006Z,1005.10
2019-01-22T04:56:53.597Z,1005.10
2019-01-22T04:57:53.921Z,1005.10
2019-01-22T04:58:54.310Z,1005.10
2019-01-22T04:59:55.818Z,1005.10
2019-01-22T05:00:57.337Z,1005.10
2019-01-22T05:01:58.847Z,1005.10
2019-01-22T05:03:00.375Z,1005.09
2019-01-22T05:04:08.261Z,1005.09
2019-01-22T05:05:15.354Z,1005.09
2019-01-22T05:06:16.877Z,1005.07
2019-01-22T05:07:21.250Z,1005.08
2019-01-22T05:08:21.517Z,1005.08
2019-01-22T05:09:17.442Z,1005.07
2019-01-22T05:09:38.691Z,1005.08
2019-01-22T05:10:38.894Z,1005.07
2019-01-22T05:11:38.910Z,1005.07
2019-01-22T05:12:39.288Z,1005.05
2019-01-22T05:13:39.433Z,1005.03
2019-01-22T05:14:39.780Z,1005.02
2019-01-22T05:15:40.302Z,1004.99
2019-01-22T05:16:40.868Z,1004.98
2019-01-22T05:17:40.984Z,1004.97
2019-01-22T05:18:41.460Z,1004.98
2019-01-22T05:19:41.453Z,1004.97
2019-01-22T05:20:42.181Z,1004.96
2019-01-22T05:21:42.193Z,1004.96
2019-01-22T05:22:42.699Z,1004.96
2019-01-22T05:23:42.927Z,1004.96
2019-01-22T05:24:43.175Z,1004.94
2019-01-22T05:25:43.055Z,1004.93
2019-01-22T05:26:43.187Z,1004.91
2019-01-22T05:27:43.141Z,1004.89
2019-01-22T05:28:43.655Z,1004.89
2019-01-22T05:29:43.865Z,1004.88
2019-01-22T05:30:46.339Z,1004.88
2019-01-22T05:31:43.885Z,1004.89
2019-01-22T05:32:44.046Z,1004.87
2019-01-22T05:33:44.089Z,1004.86
2019-01-22T05:34:44.623Z,1004.86
2019-01-22T05:35:44.377Z,1004.83
2019-01-22T05:36:45.040Z,1004.84
2019-01-22T05:37:45.357Z,1004.81
2019-01-22T05:38:45.465Z,1004.78
2019-01-22T05:39:45.674Z,1004.79
2019-01-22T05:40:46.048Z,1004.78
2019-01-22T05:41:46.153Z,1004.75
2019-01-22T05:42:46.149Z,1004.74
2019-01-22T05:43:46.473Z,1004.73
2019-01-22T05:44:46.785Z,1004.76
2019-01-22T05:45:47.032Z,1004.75
2019-01-22T05:46:47.089Z,1004.75
2019-01-22T05:47:46.886Z,1004.74
2019-01-22T05:48:47.059Z,1004.71
2019-01-22T05:49:47.509Z,1004.69
2019-01-22T05:50:47.829Z,1004.69
2019-01-22T05:51:48.255Z,1004.70
2019-01-22T05:52:48.355Z,1004.69
2019-01-22T05:53:48.552Z,1004.69
2019-01-22T05:54:49.251Z,1004.67
2019-01-22T05:55:49.504Z,1004.68
2019-01-22T05:56:49.289Z,1004.70
2019-01-22T05:57:49.327Z,1004.68
2019-01-22T05:58:49.412Z,1004.67
2019-01-22T05:59:49.696Z,1004.65
2019-01-22T06:00:49.774Z,1004.65
2019-01-22T06:01:50.043Z,1004.63
2019-01-22T06:02:50.894Z,1004.60
2019-01-22T06:03:50.777Z,1004.59
2019-01-22T06:04:50.883Z,1004.58
2019-01-22T06:05:51.203Z,1004.56
2019-01-22T06:06:51.253Z,1004.54
2019-01-22T06:07:52.038Z,1004.53
2019-01-22T06:08:52.007Z,1004.53
2019-01-22T06:09:52.305Z,1004.54
2019-01-22T06:10:52.951Z,1004.55
2019-01-22T06:11:53.358Z,1004.53
2019-01-22T06:12:53.618Z,1004.52
2019-01-22T06:13:53.798Z,1004.50
2019-01-22T06:14:53.921Z,1004.50
2019-01-22T06:15:54.096Z,1004.51
2019-01-22T06:16:54.175Z,1004.50
2019-01-22T06:17:54.185Z,1004.51
2019-01-22T06:18:54.463Z,1004.50
2019-01-22T06:19:54.943Z,1004.50
2019-01-22T06:20:54.893Z,1004.49
2019-01-22T06:21:55.578Z,1004.48
2019-01-22T06:22:56.399Z,1004.47
2019-01-22T06:23:56.924Z,1004.45
2019-01-22T06:24:57.236Z,1004.43
2019-01-22T06:25:57.342Z,1004.43
2019-01-22T06:26:57.880Z,1004.43
2019-01-22T06:27:58.067Z,1004.42
2019-01-22T06:28:58.278Z,1004.44
2019-01-22T06:29:58.389Z,1004.45
2019-01-22T06:30:58.495Z,1004.45
2019-01-22T06:31:58.710Z,1004.47
2019-01-22T06:32:58.734Z,1004.46
2019-01-22T06:33:59.019Z,1004.46
2019-01-22T06:34:59.437Z,1004.44
2019-01-22T06:35:59.337Z,1004.45
2019-01-22T06:37:00.060Z,1004.45
2019-01-22T06:38:00.491Z,1004.45
2019-01-22T06:39:00.504Z,1004.45
2019-01-22T06:40:00.713Z,1004.45
2019-01-22T06:41:00.703Z,1004.46
2019-01-22T06:42:00.958Z,1004.46
2019-01-22T06:43:01.143Z,1004.47
2019-01-22T06:44:00.962Z,1004.43
2019-01-22T06:45:01.353Z,1004.43
2019-01-22T06:46:01.762Z,1004.42
2019-01-22T06:47:02.360Z,1004.42
2019-01-22T06:48:02.707Z,1004.42
2019-01-22T06:49:02.801Z,1004.40
2019-01-22T06:50:02.689Z,1004.40
2019-01-22T06:51:03.064Z,1004.40
2019-01-22T06:52:03.346Z,1004.39
2019-01-22T06:53:03.633Z,1004.39
2019-01-22T06:54:03.504Z,1004.38
2019-01-22T06:55:03.967Z,1004.39
2019-01-22T06:56:04.294Z,1004.39
2019-01-22T06:57:04.624Z,1004.41
2019-01-22T06:58:04.813Z,1004.40
2019-01-22T06:59:05.086Z,1004.40
2019-01-22T07:00:05.171Z,1004.40
2019-01-22T07:01:05.451Z,1004.38
2019-01-22T07:02:05.735Z,1004.38
2019-01-22T07:03:06.188Z,1004.38
2019-01-22T07:04:06.198Z,1004.39
2019-01-22T07:05:06.149Z,1004.40
2019-01-22T07:06:06.743Z,1004.39
2019-01-22T07:07:06.689Z,1004.41
2019-01-22T07:08:06.975Z,1004.39
2019-01-22T07:09:07.359Z,1004.39
2019-01-22T07:10:07.772Z,1004.36
2019-01-22T07:11:07.995Z,1004.36
2019-01-22T07:12:08.218Z,1004.36
2019-01-22T07:13:08.283Z,1004.35
2019-01-22T07:14:08.480Z,1004.34
2019-01-22T07:15:08.556Z,1004.34
2019-01-22T07:16:08.747Z,1004.33
2019-01-22T07:17:09.037Z,1004.31
2019-01-22T07:18:09.401Z,1004.30
2019-01-22T07:19:09.712Z,1004.29
2019-01-22T07:20:09.813Z,1004.28
2019-01-22T07:21:09.891Z,1004.27
2019-01-22T07:22:11.219Z,1004.27
2019-01-22T07:23:11.121Z,1004.28
2019-01-22T07:24:11.858Z,1004.28
2019-01-22T07:25:11.756Z,1004.30
2019-01-22T07:26:11.757Z,1004.31
2019-01-22T07:27:11.870Z,1004.31
2019-01-22T07:28:12.282Z,1004.28
2019-01-22T07:29:12.383Z,1004.31
2019-01-22T07:30:12.718Z,1004.31
2019-01-22T07:31:12.743Z,1004.32
2019-01-22T07:32:13.128Z,1004.31
2019-01-22T07:33:13.237Z,1004.32
2019-01-22T07:34:13.550Z,1004.32
2019-01-22T07:35:13.359Z,1004.31
2019-01-22T07:36:13.666Z,1004.32
2019-01-22T07:37:14.088Z,1004.33
2019-01-22T07:38:14.091Z,1004.36
2019-01-22T07:39:14.397Z,1004.37
2019-01-22T07:40:15.030Z,1004.37
2019-01-22T07:41:14.722Z,1004.36
2019-01-22T07:42:14.795Z,1004.38
2019-01-22T07:43:15.042Z,1004.36
2019-01-22T07:44:15.345Z,1004.37
2019-01-22T07:45:15.994Z,1004.35
2019-01-22T07:46:15.986Z,1004.36
2019-01-22T07:47:16.014Z,1004.34
2019-01-22T07:48:16.115Z,1004.33
2019-01-22T07:49:16.786Z,1004.34
2019-01-22T07:50:17.039Z,1004.34
2019-01-22T07:51:17.212Z,1004.31
2019-01-22T07:52:17.538Z,1004.31
2019-01-22T07:53:17.431Z,1004.32
2019-01-22T07:54:19.507Z,1004.31
2019-01-22T07:55:18.086Z,1004.30
2019-01-22T07:56:18.132Z,1004.28
2019-01-22T07:57:18.376Z,1004.24
2019-01-22T07:58:18.831Z,1004.24
2019-01-22T07:59:18.663Z,1004.23
2019-01-22T08:00:18.775Z,1004.22
2019-01-22T08:01:18.935Z,1004.20
2019-01-22T08:02:19.302Z,1004.19
2019-01-22T08:03:19.719Z,1004.18
2019-01-22T08:04:20.402Z,1004.15
2019-01-22T08:05:20.436Z,1004.12
2019-01-22T08:06:20.715Z,1004.12
2019-01-22T08:07:20.855Z,1004.10
2019-01-22T08:08:20.861Z,1004.10
2019-01-22T08:09:21.763Z,1004.06
2019-01-22T08:10:21.481Z,1004.03
2019-01-22T08:11:22.601Z,1004.03
2019-01-22T08:12:22.013Z,1004.00
2019-01-22T08:13:22.092Z,1003.99
2019-01-22T08:14:22.177Z,1003.96
2019-01-22T08:15:22.546Z,1003.96
2019-01-22T08:16:22.875Z,1003.93
2019-01-22T08:17:23.193Z,1003.91
2019-01-22T08:18:23.291Z,1003.92
2019-01-22T08:19:23.499Z,1003.92
2019-01-22T08:20:23.816Z,1003.90
2019-01-22T08:21:24.309Z,1003.89
2019-01-22T08:22:24.477Z,1003.87
2019-01-22T08:23:24.660Z,1003.85
2019-01-22T08:24:25.016Z,1003.85
2019-01-22T08:25:25.050Z,1003.82
2019-01-22T08:26:25.676Z,1003.81
2019-01-22T08:27:29.644Z,1003.80
2019-01-22T08:28:26.400Z,1003.80
2019-01-22T08:29:26.095Z,1003.78
2019-01-22T08:30:26.923Z,1003.76
2019-01-22T08:31:27.144Z,1003.75
2019-01-22T08:32:27.451Z,1003.73
2019-01-22T08:33:27.663Z,1003.72
2019-01-22T08:34:27.860Z,1003.73
2019-01-22T08:35:28.287Z,1003.72
2019-01-22T08:36:28.133Z,1003.73
2019-01-22T08:37:28.612Z,1003.72
2019-01-22T08:38:28.715Z,1003.73
2019-01-22T08:39:28.639Z,1003.73
2019-01-22T08:40:29.237Z,1003.73
2019-01-22T08:41:29.151Z,1003.73
2019-01-22T08:42:29.138Z,1003.74
2019-01-22T08:43:29.429Z,1003.72
2019-01-22T08:44:29.776Z,1003.71
2019-01-22T08:45:29.669Z,1003.71
2019-01-22T08:46:29.729Z,1003.70
2019-01-22T08:47:30.118Z,1003.68
2019-01-22T08:48:30.103Z,1003.65
2019-01-22T08:49:30.326Z,1003.63
2019-01-22T08:50:30.732Z,1003.61
2019-01-22T08:51:30.874Z,1003.61
2019-01-22T08:52:31.064Z,1003.60
2019-01-22T08:53:31.197Z,1003.60
2019-01-22T08:54:31.013Z,1003.58
2019-01-22T08:55:31.415Z,1003.57
2019-01-22T08:56:31.867Z,1003.57
2019-01-22T08:58:32.014Z,1003.56
2019-01-22T08:59:31.858Z,1003.56
2019-01-22T09:00:32.339Z,1003.55
2019-01-22T09:01:35.502Z,1003.54
2019-01-22T09:02:32.498Z,1003.54
2019-01-22T09:03:33.179Z,1003.52
2019-01-22T09:04:33.343Z,1003.51
2019-01-22T09:05:33.620Z,1003.49
2019-01-22T09:06:33.847Z,1003.49
2019-01-22T09:07:34.263Z,1003.50
2019-01-22T09:08:34.689Z,1003.51
2019-01-22T09:09:35.153Z,1003.49
2019-01-22T09:10:35.109Z,1003.50
2019-01-22T09:11:35.235Z,1003.49
2019-01-22T09:12:35.599Z,1003.47
2019-01-22T09:13:35.768Z,1003.45
2019-01-22T09:14:36.071Z,1003.42
2019-01-22T09:15:36.261Z,1003.40
2019-01-22T09:16:36.465Z,1003.38
2019-01-22T09:17:36.912Z,1003.35
2019-01-22T09:18:37.104Z,1003.34
2019-01-22T09:19:37.515Z,1003.31
2019-01-22T09:20:37.591Z,1003.30
2019-01-22T09:21:37.901Z,1003.28
2019-01-22T09:22:38.039Z,1003.28
2019-01-22T09:23:38.165Z,1003.28
2019-01-22T09:24:38.426Z,1003.28
2019-01-22T09:25:38.917Z,1003.26
2019-01-22T09:26:38.775Z,1003.24
2019-01-22T09:27:39.080Z,1003.23
2019-01-22T09:28:39.223Z,1003.23
2019-01-22T09:29:39.561Z,1003.19
2019-01-22T09:30:39.692Z,1003.18
2019-01-22T09:31:39.942Z,1003.17
2019-01-22T09:32:41.258Z,1003.16
2019-01-22T09:33:41.878Z,1003.17
2019-01-22T09:34:42.084Z,1003.15
2019-01-22T09:35:42.399Z,1003.16
2019-01-22T09:36:42.720Z,1003.15
2019-01-22T09:37:42.926Z,1003.15
2019-01-22T09:38:43.033Z,1003.13
2019-01-22T09:39:43.435Z,1003.13
2019-01-22T09:40:43.662Z,1003.12
2019-01-22T09:41:43.869Z,1003.13
2019-01-22T09:42:44.172Z,1003.12
2019-01-22T09:43:44.088Z,1003.11
2019-01-22T09:44:44.406Z,1003.12
2019-01-22T09:45:44.595Z,1003.09
2019-01-22T09:46:44.663Z,1003.08
2019-01-22T09:47:44.923Z,1003.08
2019-01-22T09:48:45.004Z,1003.05
2019-01-22T09:49:45.356Z,1003.04
2019-01-22T09:50:45.728Z,1003.04
2019-01-22T09:51:48.675Z,1003.04
2019-01-22T09:52:46.109Z,1003.02
2019-01-22T09:53:46.543Z,1003.01
2019-01-22T09:54:46.798Z,1002.99
2019-01-22T09:55:47.332Z,1002.95
2019-01-22T09:56:47.070Z,1002.93
2019-01-22T09:57:47.535Z,1002.93
2019-01-22T09:58:47.776Z,1002.91
2019-01-22T09:59:48.540Z,1002.89
2019-01-22T10:00:48.809Z,1002.90
2019-01-22T10:01:48.656Z,1002.89
2019-01-22T10:02:48.973Z,1002.86
2019-01-22T10:03:49.353Z,1002.84
2019-01-22T10:04:49.687Z,1002.81
2019-01-22T10:05:50.013Z,1002.82
2019-01-22T10:06:50.314Z,1002.79
2019-01-22T10:07:50.630Z,1002.78
2019-01-22T10:08:50.872Z,1002.76
2019-01-22T10:09:51.264Z,1002.77
2019-01-22T10:10:52.093Z,1002.76
2019-01-22T10:11:51.883Z,1002.75
2019-01-22T10:12:52.220Z,1002.74
2019-01-22T10:13:52.949Z,1002.71
2019-01-22T10:14:52.726Z,1002.70
2019-01-22T10:15:53.014Z,1002.68
2019-01-22T10:16:53.593Z,1002.67
2019-01-22T10:17:53.689Z,1002.67
2019-01-22T10:18:53.798Z,1002.66
2019-01-22T10:19:53.592Z,1002.65
2019-01-22T10:20:53.943Z,1002.64
2019-01-22T10:21:54.326Z,1002.64
2019-01-22T10:23:54.902Z,1002.64
2019-01-22T10:24:54.745Z,1002.64
2019-01-22T10:25:55.216Z,1002.63
2019-01-22T10:26:56.759Z,1002.63
2019-01-22T10:27:56.367Z,1002.61
2019-01-22T10:28:56.566Z,1002.61
2019-01-22T10:29:57.093Z,1002.58
2019-01-22T10:30:57.093Z,1002.58
2019-01-22T10:31:57.508Z,1002.56
2019-01-22T10:32:57.899Z,1002.54
2019-01-22T10:33:58.228Z,1002.52
2019-01-22T10:34:58.658Z,1002.52
2019-01-22T10:35:59.116Z,1002.51
2019-01-22T10:36:59.260Z,1002.51
2019-01-22T10:37:58.967Z,1002.49
2019-01-22T10:38:59.501Z,1002.49
2019-01-22T10:39:59.476Z,1002.47
2019-01-22T10:40:59.833Z,1002.46
2019-01-22T10:42:00.344Z,1002.45
2019-01-22T10:42:59.985Z,1002.44
2019-01-22T10:44:00.253Z,1002.42
2019-01-22T10:45:00.469Z,1002.39
2019-01-22T10:46:00.919Z,1002.39
2019-01-22T10:47:01.092Z,1002.40
2019-01-22T10:48:01.811Z,1002.37
2019-01-22T10:49:02.023Z,1002.36
2019-01-22T10:50:01.933Z,1002.34
2019-01-22T10:51:02.344Z,1002.32
2019-01-22T10:52:02.244Z,1002.30
2019-01-22T10:53:02.016Z,1002.27
2019-01-22T10:54:02.659Z,1002.25
2019-01-22T10:55:03.079Z,1002.24
2019-01-22T10:56:02.715Z,1002.23
2019-01-22T10:57:03.395Z,1002.22
2019-01-22T10:58:08.593Z,1002.20
2019-01-22T10:59:03.427Z,1002.18
2019-01-22T11:00:04.221Z,1002.15
2019-01-22T11:01:04.308Z,1002.11
2019-01-22T11:02:04.606Z,1002.10
2019-01-22T11:03:04.962Z,1002.07
2019-01-22T11:04:05.276Z,1002.07
2019-01-22T11:05:05.552Z,1002.06
2019-01-22T11:06:05.984Z,1002.03
2019-01-22T11:07:06.368Z,1002.02
2019-01-22T11:08:06.695Z,1002.00
2019-01-22T11:09:07.683Z,1001.97
2019-01-22T11:10:07.903Z,1001.94
2019-01-22T11:11:07.650Z,1001.92
2019-01-22T11:12:07.954Z,1001.90
2019-01-22T11:13:08.270Z,1001.88
2019-01-22T11:14:08.575Z,1001.86
2019-01-22T11:15:08.903Z,1001.82
2019-01-22T11:16:09.376Z,1001.79
2019-01-22T11:17:09.886Z,1001.77
2019-01-22T11:18:09.643Z,1001.74
2019-01-22T11:19:09.876Z,1001.71
2019-01-22T11:20:10.834Z,1001.70
2019-01-22T11:21:11.369Z,1001.68
2019-01-22T11:22:11.456Z,1001.66
2019-01-22T11:23:11.770Z,1001.62
2019-01-22T11:24:12.183Z,1001.60
2019-01-22T11:25:12.494Z,1001.57
2019-01-22T11:26:12.920Z,1001.55
2019-01-22T11:27:12.953Z,1001.51
2019-01-22T11:28:13.232Z,1001.48
2019-01-22T11:29:13.649Z,1001.45
2019-01-22T11:30:13.859Z,1001.42
2019-01-22T11:31:14.374Z,1001.41
2019-01-22T11:32:14.602Z,1001.39
2019-01-22T11:33:14.662Z,1001.36
2019-01-22T11:34:14.500Z,1001.32
2019-01-22T11:35:15.225Z,1001.29
2019-01-22T11:36:15.438Z,1001.27
2019-01-22T11:37:15.106Z,1001.26
2019-01-22T11:38:15.632Z,1001.22
2019-01-22T11:39:15.296Z,1001.22
2019-01-22T11:40:15.771Z,1001.20
2019-01-22T11:41:15.953Z,1001.19
2019-01-22T11:42:16.071Z,1001.17
2019-01-22T11:43:16.125Z,1001.16
2019-01-22T11:44:16.088Z,1001.15
2019-01-22T11:45:17.228Z,1001.12
2019-01-22T11:46:16.836Z,1001.09
2019-01-22T11:47:16.685Z,1001.07
2019-01-22T11:48:16.919Z,1001.04
2019-01-22T11:49:23.230Z,1001.01
2019-01-22T11:50:17.953Z,1000.98
2019-01-22T11:51:17.826Z,1000.97
2019-01-22T11:52:18.288Z,1000.94
2019-01-22T11:53:18.651Z,1000.94
2019-01-22T11:54:18.973Z,1000.92
2019-01-22T11:55:19.528Z,1000.90
2019-01-22T11:56:19.549Z,1000.88
2019-01-22T11:57:19.529Z,1000.86
2019-01-22T11:58:19.765Z,1000.84
2019-01-22T11:59:20.202Z,1000.81
2019-01-22T12:00:20.783Z,1000.78
2019-01-22T12:01:20.824Z,1000.75
2019-01-22T12:02:20.698Z,1000.73
2019-01-22T12:03:21.070Z,1000.74
2019-01-22T12:04:21.400Z,1000.71
2019-01-22T12:05:21.656Z,1000.72
2019-01-22T12:06:22.037Z,1000.71
2019-01-22T12:07:22.486Z,1000.69
2019-01-22T12:08:22.743Z,1000.68
2019-01-22T12:09:23.127Z,1000.66
2019-01-22T12:10:23.480Z,1000.64
2019-01-22T12:11:23.788Z,1000.61
2019-01-22T12:12:24.370Z,1000.57
2019-01-22T12:13:24.210Z,1000.54
2019-01-22T12:14:24.693Z,1000.50
2019-01-22T12:15:25.301Z,1000.47
2019-01-22T12:16:25.429Z,1000.46
2019-01-22T12:17:26.158Z,1000.43
2019-01-22T12:18:26.567Z,1000.41
2019-01-22T12:19:26.765Z,1000.38
2019-01-22T12:20:26.985Z,1000.34
2019-01-22T12:21:27.197Z,1000.32
2019-01-22T12:22:27.830Z,1000.31
2019-01-22T12:23:28.124Z,1000.28
2019-01-22T12:24:28.349Z,1000.26
2019-01-22T12:25:28.761Z,1000.23
2019-01-22T12:26:29.075Z,1000.20
2019-01-22T12:27:29.387Z,1000.19